createdAt,value
2023-05-08T00:00:50.349Z,31.60
2023-05-08T00:03:19.124Z,31.50
2023-05-08T00:05:47.899Z,31.60
2023-05-08T00:08:15.799Z,31.60
2023-05-08T00:10:46.125Z,31.60
2023-05-08T00:13:15.168Z,31.70
2023-05-08T00:15:43.531Z,31.70
2023-05-08T00:18:12.933Z,31.70
2023-05-08T00:20:41.471Z,31.80
2023-05-08T00:23:10.634Z,31.90
2023-05-08T00:25:41.477Z,32.00
2023-05-08T00:28:12.079Z,31.90
2023-05-08T00:30:45.762Z,32.00
2023-05-08T00:33:14.393Z,32.00
2023-05-08T00:35:42.828Z,31.90
2023-05-08T00:38:12.131Z,31.90
2023-05-08T00:40:40.702Z,31.90
2023-05-08T00:43:08.367Z,31.80
2023-05-08T00:45:36.860Z,31.90
2023-05-08T00:48:04.669Z,31.90
2023-05-08T00:50:32.339Z,31.90
2023-05-08T00:52:59.965Z,31.90
2023-05-08T00:55:28.407Z,32.00
2023-05-08T00:57:55.960Z,32.00
2023-05-08T01:00:23.653Z,32.00
2023-05-08T01:02:51.471Z,32.10
2023-05-08T01:05:19.466Z,32.20
2023-05-08T01:07:47.132Z,32.20
2023-05-08T01:10:15.665Z,32.10
2023-05-08T01:12:43.526Z,32.10
2023-05-08T01:15:11.172Z,32.00
2023-05-08T01:17:38.952Z,31.90
2023-05-08T01:20:06.562Z,32.00
2023-05-08T01:22:35.822Z,32.20
2023-05-08T01:25:04.154Z,32.20
2023-05-08T01:27:31.846Z,32.30
2023-05-08T01:29:59.439Z,32.20
2023-05-08T01:32:27.591Z,32.20
2023-05-08T01:34:55.899Z,32.30
2023-05-08T01:37:23.612Z,32.50
2023-05-08T01:39:51.364Z,32.20
2023-05-08T01:42:18.925Z,32.00
2023-05-08T01:44:46.580Z,32.10
2023-05-08T01:47:14.581Z,32.10
2023-05-08T01:49:42.172Z,32.20
2023-05-08T01:52:09.822Z,32.00
2023-05-08T01:54:37.684Z,31.80
2023-05-08T01:57:05.588Z,31.60
2023-05-08T01:59:33.286Z,31.50
2023-05-08T02:02:01.589Z,31.60
2023-05-08T02:04:29.276Z,31.60
2023-05-08T02:06:56.969Z,31.50
2023-05-08T02:09:25.055Z,31.50
2023-05-08T02:11:52.877Z,31.50
2023-05-08T02:14:20.422Z,31.20
2023-05-08T02:16:48.302Z,31.10
2023-05-08T02:19:15.956Z,31.20
2023-05-08T02:21:43.669Z,31.30
2023-05-08T02:24:11.325Z,30.90
2023-05-08T02:26:48.526Z,30.90
2023-05-08T02:29:21.462Z,31.10
2023-05-08T02:31:50.227Z,31.00
2023-05-08T02:34:17.982Z,31.00
2023-05-08T02:36:45.583Z,30.90
2023-05-08T02:39:13.776Z,31.00
2023-05-08T02:41:41.380Z,30.80
2023-05-08T02:44:09.269Z,30.80
2023-05-08T02:46:36.954Z,30.60
2023-05-08T02:49:04.633Z,30.80
2023-05-08T02:51:32.418Z,31.10
2023-05-08T02:53:59.972Z,31.20
2023-05-08T02:56:28.196Z,31.30
2023-05-08T02:58:56.202Z,31.50
2023-05-08T03:01:23.858Z,31.70
2023-05-08T03:03:51.753Z,31.80
2023-05-08T03:06:19.436Z,31.70
2023-05-08T03:08:47.067Z,31.60
2023-05-08T03:11:14.680Z,31.60
2023-05-08T03:13:42.186Z,31.50
2023-05-08T03:16:09.846Z,31.40
2023-05-08T03:18:37.392Z,31.40
2023-05-08T03:21:05.267Z,31.10
2023-05-08T03:23:32.967Z,31.30
2023-05-08T03:26:00.679Z,31.50
2023-05-08T03:28:28.421Z,31.60
2023-05-08T03:30:56.244Z,31.10
2023-05-08T03:33:23.772Z,30.90
2023-05-08T03:35:52.303Z,30.90
2023-05-08T03:38:20.046Z,31.10
2023-05-08T03:40:47.573Z,31.40
2023-05-08T03:43:15.350Z,31.40
2023-05-08T03:45:42.908Z,31.20
2023-05-08T03:48:10.539Z,31.10
2023-05-08T03:50:38.214Z,31.10
2023-05-08T03:53:05.887Z,31.40
2023-05-08T03:55:33.402Z,31.40
2023-05-08T03:58:01.114Z,31.40
2023-05-08T04:00:28.782Z,31.50
2023-05-08T04:02:56.391Z,31.40
2023-05-08T04:05:24.036Z,31.30
2023-05-08T04:07:51.654Z,31.40
2023-05-08T04:10:19.142Z,31.50
2023-05-08T04:12:46.731Z,31.40
2023-05-08T04:15:14.741Z,31.60
2023-05-08T04:17:42.576Z,31.50
2023-05-08T04:20:10.391Z,31.70
2023-05-08T04:22:37.949Z,31.70
2023-05-08T04:25:06.023Z,31.70
2023-05-08T04:27:33.731Z,31.60
2023-05-08T04:30:01.749Z,31.60
2023-05-08T04:32:29.279Z,31.70
2023-05-08T04:34:56.865Z,31.90
2023-05-08T04:37:24.635Z,31.80
2023-05-08T04:39:52.201Z,31.90
2023-05-08T04:42:19.948Z,32.10
2023-05-08T04:44:47.614Z,32.00
2023-05-08T04:47:15.688Z,32.00
2023-05-08T04:49:43.293Z,32.10
2023-05-08T04:52:11.092Z,32.00
2023-05-08T04:54:38.688Z,31.90
2023-05-08T04:57:06.247Z,31.90
2023-05-08T04:59:33.856Z,32.00
2023-05-08T05:02:01.508Z,32.10
2023-05-08T05:04:29.361Z,31.90
2023-05-08T05:06:57.192Z,31.90
2023-05-08T05:09:24.728Z,32.00
2023-05-08T05:11:52.357Z,32.10
2023-05-08T05:14:20.205Z,32.20
2023-05-08T05:16:47.718Z,32.30
2023-05-08T05:19:15.333Z,32.30
2023-05-08T05:21:42.903Z,32.30
2023-05-08T05:24:10.804Z,32.30
2023-05-08T05:26:38.816Z,32.30
2023-05-08T05:29:06.445Z,32.30
2023-05-08T05:31:35.406Z,32.40
2023-05-08T05:34:03.088Z,32.40
2023-05-08T05:36:30.847Z,32.40
2023-05-08T05:38:58.362Z,32.50
2023-05-08T05:41:26.290Z,32.50
2023-05-08T05:43:53.935Z,32.50
2023-05-08T05:46:21.929Z,32.50
2023-05-08T05:48:49.584Z,32.50
2023-05-08T05:51:17.156Z,32.50
2023-05-08T05:53:45.146Z,32.50
2023-05-08T05:56:12.817Z,32.50
2023-05-08T05:58:40.419Z,32.60
2023-05-08T06:01:08.138Z,32.50
2023-05-08T06:03:36.127Z,32.70
2023-05-08T06:06:03.972Z,32.70
2023-05-08T06:08:31.464Z,32.80
2023-05-08T06:10:59.054Z,32.80
2023-05-08T06:13:26.894Z,32.80
2023-05-08T06:15:54.523Z,32.80
2023-05-08T06:18:22.350Z,32.80
2023-05-08T06:20:49.951Z,32.90
2023-05-08T06:23:17.563Z,32.90
2023-05-08T06:25:45.155Z,32.80
2023-05-08T06:28:12.781Z,32.90
2023-05-08T06:30:40.427Z,32.70
2023-05-08T06:33:07.990Z,32.60
2023-05-08T06:35:35.639Z,32.70
2023-05-08T06:38:03.131Z,32.70
2023-05-08T06:40:30.896Z,32.70
2023-05-08T06:42:58.418Z,32.70
2023-05-08T06:45:25.970Z,32.70
2023-05-08T06:47:53.605Z,32.60
2023-05-08T06:50:21.282Z,32.10
2023-05-08T06:52:49.145Z,32.10
2023-05-08T06:55:16.837Z,32.50
2023-05-08T06:57:44.481Z,32.70
2023-05-08T07:00:12.007Z,32.60
2023-05-08T07:02:39.791Z,32.60
2023-05-08T07:05:07.800Z,32.70
2023-05-08T07:07:35.397Z,33.00
2023-05-08T07:10:02.976Z,33.20
2023-05-08T07:12:30.711Z,33.00
2023-05-08T07:14:58.230Z,32.70
2023-05-08T07:17:25.801Z,32.90
2023-05-08T07:19:53.504Z,33.00
2023-05-08T07:22:21.081Z,33.00
2023-05-08T07:24:48.870Z,33.50
2023-05-08T07:27:16.553Z,33.20
2023-05-08T07:29:44.118Z,32.70
2023-05-08T07:32:11.737Z,32.70
2023-05-08T07:34:39.452Z,32.70
2023-05-08T07:37:06.956Z,32.90
2023-05-08T07:39:34.572Z,32.70
2023-05-08T07:42:02.226Z,33.10
2023-05-08T07:44:31.773Z,33.50
2023-05-08T07:47:04.964Z,33.70
2023-05-08T07:49:32.515Z,33.60
2023-05-08T07:52:00.054Z,33.80
2023-05-08T07:54:27.836Z,33.90
2023-05-08T07:56:55.401Z,33.80
2023-05-08T07:59:22.931Z,33.90
2023-05-08T08:01:50.985Z,34.00
2023-05-08T08:04:18.586Z,34.30
2023-05-08T08:06:46.201Z,34.70
2023-05-08T08:09:13.811Z,34.80
2023-05-08T08:11:41.413Z,35.00
2023-05-08T08:14:08.964Z,34.90
2023-05-08T08:16:36.692Z,35.00
2023-05-08T08:19:04.265Z,34.80
2023-05-08T08:21:32.506Z,34.80
2023-05-08T08:24:00.215Z,34.70
2023-05-08T08:26:27.778Z,34.50
2023-05-08T08:28:55.350Z,34.40
2023-05-08T08:31:23.217Z,34.30
2023-05-08T08:33:50.882Z,34.30
2023-05-08T08:36:18.551Z,34.40
2023-05-08T08:38:46.461Z,34.40
2023-05-08T08:41:14.609Z,34.30
2023-05-08T08:43:42.240Z,34.40
2023-05-08T08:46:09.960Z,34.50
2023-05-08T08:48:37.585Z,34.30
2023-05-08T08:51:05.317Z,34.30
2023-05-08T08:53:33.098Z,34.30
2023-05-08T08:56:00.586Z,34.30
2023-05-08T08:58:28.116Z,34.20
2023-05-08T09:00:55.887Z,34.20
2023-05-08T09:03:23.624Z,34.20
2023-05-08T09:05:51.323Z,34.10
2023-05-08T09:08:19.402Z,34.00
2023-05-08T09:10:46.942Z,33.90
2023-05-08T09:13:15.199Z,33.80
2023-05-08T09:15:43.469Z,33.70
2023-05-08T09:18:11.091Z,33.80
2023-05-08T09:20:38.719Z,33.90
2023-05-08T09:23:06.405Z,33.80
2023-05-08T09:25:33.934Z,33.80
2023-05-08T09:28:01.448Z,33.80
2023-05-08T09:30:29.371Z,33.90
2023-05-08T09:32:57.089Z,34.00
2023-05-08T09:35:24.754Z,34.20
2023-05-08T09:37:52.819Z,34.20
2023-05-08T09:40:20.440Z,34.10
2023-05-08T09:42:48.201Z,34.20
2023-05-08T09:45:16.241Z,34.10
2023-05-08T09:47:43.853Z,34.20
2023-05-08T09:50:11.473Z,34.10
2023-05-08T09:52:39.406Z,34.30
2023-05-08T09:55:07.046Z,34.20
2023-05-08T09:57:34.601Z,34.20
2023-05-08T10:00:02.665Z,34.20
2023-05-08T10:02:30.307Z,33.80
2023-05-08T10:04:57.872Z,33.60
2023-05-08T10:07:25.542Z,33.40
2023-05-08T10:09:53.081Z,33.50
2023-05-08T10:12:20.643Z,33.40
2023-05-08T10:14:48.400Z,33.50
2023-05-08T10:17:15.993Z,33.20
2023-05-08T10:19:43.623Z,33.10
2023-05-08T10:22:11.386Z,33.30
2023-05-08T10:24:38.860Z,33.30
2023-05-08T10:27:07.739Z,33.30
2023-05-08T10:29:36.557Z,33.40
2023-05-08T10:32:04.139Z,33.50
2023-05-08T10:34:32.407Z,33.60
2023-05-08T10:37:00.202Z,33.50
2023-05-08T10:39:27.847Z,33.40
2023-05-08T10:41:55.349Z,33.30
2023-05-08T10:44:22.939Z,33.20
2023-05-08T10:46:50.544Z,33.30
2023-05-08T10:49:18.121Z,33.20
2023-05-08T10:51:45.848Z,33.20
2023-05-08T10:54:13.328Z,33.10
2023-05-08T10:56:40.909Z,33.00
2023-05-08T10:59:08.671Z,33.10
2023-05-08T11:01:36.256Z,33.10
2023-05-08T11:04:03.797Z,33.10
2023-05-08T11:06:31.896Z,33.00
2023-05-08T11:09:00.635Z,33.00
2023-05-08T11:11:28.604Z,32.90
2023-05-08T11:13:56.190Z,32.90
2023-05-08T11:16:23.906Z,32.90
2023-05-08T11:18:51.684Z,32.90
2023-05-08T11:21:19.345Z,32.80
2023-05-08T11:23:46.926Z,32.80
2023-05-08T11:26:14.583Z,32.70
2023-05-08T11:28:42.327Z,32.70
2023-05-08T11:31:09.944Z,32.70
2023-05-08T11:33:37.605Z,32.60
2023-05-08T11:36:05.201Z,32.50
2023-05-08T11:38:33.118Z,32.50
2023-05-08T11:41:00.683Z,32.40
2023-05-08T11:43:28.524Z,32.40
2023-05-08T11:45:56.075Z,32.30
2023-05-08T11:48:23.574Z,32.10
2023-05-08T11:50:51.205Z,32.00
2023-05-08T11:53:23.443Z,32.00
2023-05-08T11:55:51.061Z,32.00
2023-05-08T11:58:18.705Z,31.90
2023-05-08T12:00:46.342Z,31.90
2023-05-08T12:03:14.125Z,31.90
2023-05-08T12:05:41.782Z,31.90
2023-05-08T12:08:09.484Z,31.90
2023-05-08T12:10:37.225Z,31.80
2023-05-08T12:13:04.875Z,31.70
2023-05-08T12:15:32.435Z,31.70
2023-05-08T12:18:00.222Z,31.60
2023-05-08T12:20:28.520Z,31.50
2023-05-08T12:22:56.032Z,31.40
2023-05-08T12:25:23.807Z,31.50
2023-05-08T12:27:51.436Z,31.60
2023-05-08T12:30:19.456Z,31.60
2023-05-08T12:32:47.387Z,31.60
2023-05-08T12:35:15.087Z,31.50
2023-05-08T12:37:42.630Z,31.50
2023-05-08T12:40:10.495Z,31.50
2023-05-08T12:42:38.287Z,31.50
2023-05-08T12:45:05.962Z,31.40
2023-05-08T12:47:34.104Z,31.40
2023-05-08T12:50:01.781Z,31.30
2023-05-08T12:52:29.426Z,31.20
2023-05-08T12:54:57.389Z,31.30
2023-05-08T12:57:25.329Z,31.30
2023-05-08T12:59:53.160Z,31.30
2023-05-08T13:02:20.909Z,31.30
2023-05-08T13:04:49.020Z,31.30
2023-05-08T13:07:16.660Z,31.20
2023-05-08T13:09:44.422Z,31.20
2023-05-08T13:12:14.444Z,31.20
2023-05-08T13:14:42.004Z,31.20
2023-05-08T13:17:09.662Z,31.30
2023-05-08T13:19:37.833Z,31.30
2023-05-08T13:22:05.402Z,31.20
2023-05-08T13:24:33.061Z,31.10
2023-05-08T13:27:01.022Z,31.10
2023-05-08T13:29:28.556Z,31.10
2023-05-08T13:34:49.206Z,31.00
2023-05-08T13:37:19.478Z,31.00
2023-05-08T13:39:47.245Z,30.70
2023-05-08T13:42:14.948Z,30.90
2023-05-08T13:44:42.587Z,31.00
2023-05-08T13:47:10.526Z,31.00
2023-05-08T13:49:38.098Z,31.00
2023-05-08T13:52:06.670Z,30.90
2023-05-08T13:54:34.321Z,30.90
2023-05-08T13:57:06.828Z,30.90
2023-05-08T13:59:34.404Z,30.90
2023-05-08T14:02:01.978Z,30.80
2023-05-08T14:04:29.653Z,30.80
2023-05-08T14:06:57.432Z,30.80
2023-05-08T14:09:25.058Z,30.80
2023-05-08T14:11:53.425Z,30.90
2023-05-08T14:14:21.245Z,30.70
2023-05-08T14:16:49.153Z,30.80
2023-05-08T14:19:16.646Z,30.70
2023-05-08T14:21:44.188Z,30.70
2023-05-08T14:24:12.077Z,30.70
2023-05-08T14:26:39.686Z,30.70
2023-05-08T14:29:07.807Z,30.70
2023-05-08T14:31:36.059Z,30.70
2023-05-08T14:34:03.593Z,30.70
2023-05-08T14:36:31.407Z,30.60
2023-05-08T14:38:59.145Z,30.60
2023-05-08T14:41:26.704Z,30.60
2023-05-08T14:43:54.303Z,30.60
2023-05-08T14:46:22.342Z,30.40
2023-05-08T14:48:50.013Z,30.50
2023-05-08T14:51:17.553Z,30.50
2023-05-08T14:53:46.297Z,30.50
2023-05-08T14:56:14.156Z,30.50
2023-05-08T14:58:41.983Z,30.50
2023-05-08T15:01:09.537Z,30.40
2023-05-08T15:03:37.248Z,30.40
2023-05-08T15:06:05.620Z,30.30
2023-05-08T15:08:33.475Z,30.20
2023-05-08T15:11:01.054Z,30.30
2023-05-08T15:13:28.814Z,30.30
2023-05-08T15:15:56.594Z,30.30
2023-05-08T15:18:24.158Z,30.30
2023-05-08T15:20:51.899Z,30.10
2023-05-08T15:23:19.496Z,30.10
2023-05-08T15:25:47.197Z,30.10
2023-05-08T15:28:14.761Z,30.10
2023-05-08T15:30:42.626Z,30.20
2023-05-08T15:33:10.209Z,30.00
2023-05-08T15:35:37.951Z,29.90
2023-05-08T15:40:54.862Z,30.00
2023-05-08T15:46:05.153Z,29.90
2023-05-08T15:48:33.100Z,29.80
2023-05-08T15:51:00.666Z,29.80
2023-05-08T15:53:28.398Z,29.70
2023-05-08T15:55:57.907Z,29.70
2023-05-08T15:58:45.551Z,29.70
2023-05-08T16:01:13.724Z,29.70
2023-05-08T16:03:41.285Z,29.80
2023-05-08T16:06:09.636Z,29.70
2023-05-08T16:08:37.697Z,29.70
2023-05-08T16:11:05.341Z,29.80
2023-05-08T16:13:33.582Z,29.80
2023-05-08T16:16:01.266Z,29.90
2023-05-08T16:18:28.841Z,29.80
2023-05-08T16:20:56.518Z,29.70
2023-05-08T16:23:25.656Z,29.70
2023-05-08T16:25:53.256Z,29.70
2023-05-08T16:28:20.858Z,29.70
2023-05-08T16:30:48.525Z,29.70
2023-05-08T16:33:16.056Z,29.60
2023-05-08T16:35:43.724Z,29.70
2023-05-08T16:38:11.664Z,29.70
2023-05-08T16:40:39.407Z,29.60
2023-05-08T16:43:07.298Z,29.50
2023-05-08T16:45:34.891Z,29.60
2023-05-08T16:48:02.538Z,29.60
2023-05-08T16:50:30.161Z,29.60
2023-05-08T16:52:57.749Z,29.50
2023-05-08T16:55:25.406Z,29.50
2023-05-08T16:57:53.060Z,29.40
2023-05-08T17:00:20.573Z,29.40
2023-05-08T17:02:48.199Z,29.30
2023-05-08T17:05:16.178Z,29.40
2023-05-08T17:07:43.920Z,29.40
2023-05-08T17:10:11.538Z,29.40
2023-05-08T17:12:39.182Z,29.40
2023-05-08T17:15:06.697Z,29.40
2023-05-08T17:17:34.242Z,29.40
2023-05-08T17:20:02.000Z,29.30
2023-05-08T17:22:29.758Z,29.30
2023-05-08T17:24:57.265Z,29.20
2023-05-08T17:27:24.928Z,29.30
2023-05-08T17:35:38.297Z,29.30
2023-05-08T17:38:13.758Z,29.20
2023-05-08T17:54:24.058Z,29.10
2023-05-08T17:56:51.806Z,29.10
2023-05-08T17:59:19.367Z,29.10
2023-05-08T18:01:47.512Z,29.10
2023-05-08T18:04:16.131Z,29.10
2023-05-08T18:06:45.002Z,29.10
2023-05-08T18:09:15.807Z,29.20
2023-05-08T18:11:43.831Z,29.10
2023-05-08T18:14:11.337Z,29.20
2023-05-08T18:16:39.547Z,29.10
2023-05-08T18:19:07.498Z,29.00
2023-05-08T18:21:38.695Z,29.10
2023-05-08T18:24:06.482Z,29.00
2023-05-08T18:26:34.045Z,29.10
2023-05-08T18:29:02.495Z,29.10
2023-05-08T18:31:31.222Z,29.10
2023-05-08T18:36:40.814Z,28.90
2023-05-08T18:39:08.516Z,28.90
2023-05-08T18:41:36.151Z,29.00
2023-05-08T18:44:03.954Z,29.10
2023-05-08T18:46:31.757Z,29.00
2023-05-08T18:48:59.418Z,28.90
2023-05-08T18:51:27.440Z,28.80
2023-05-08T18:53:55.143Z,28.80
2023-05-08T18:56:22.764Z,28.90
2023-05-08T19:01:32.524Z,28.70
2023-05-08T19:04:05.033Z,28.70
2023-05-08T19:06:32.760Z,28.80
2023-05-08T19:09:00.559Z,28.90
2023-05-08T19:11:28.294Z,28.80
2023-05-08T19:13:55.983Z,28.90
2023-05-08T19:16:23.792Z,28.80
2023-05-08T19:18:51.460Z,28.90
2023-05-08T19:21:19.004Z,28.80
2023-05-08T19:23:46.617Z,28.80
2023-05-08T19:26:16.475Z,28.70
2023-05-08T19:28:44.047Z,28.70
2023-05-08T19:31:13.206Z,28.80
2023-05-08T19:33:43.932Z,28.90
2023-05-08T19:36:26.020Z,29.00
2023-05-08T19:38:53.721Z,28.90
2023-05-08T19:41:21.437Z,28.70
2023-05-08T19:44:02.319Z,28.70
2023-05-08T19:46:30.898Z,28.70
2023-05-08T19:48:58.488Z,28.70
2023-05-08T19:51:26.052Z,28.60
2023-05-08T19:53:53.794Z,28.50
2023-05-08T19:56:21.615Z,28.60
2023-05-08T19:58:49.147Z,28.40
2023-05-08T20:01:22.462Z,28.40
2023-05-08T20:03:52.404Z,28.30
2023-05-08T20:06:20.392Z,28.30
2023-05-08T20:08:47.952Z,28.30
2023-05-08T20:11:15.526Z,28.20
2023-05-08T20:13:43.290Z,28.20
2023-05-08T20:16:11.081Z,28.30
2023-05-08T20:18:40.016Z,28.50
2023-05-08T20:21:09.112Z,28.30
2023-05-08T20:26:31.488Z,28.10
2023-05-08T20:29:09.495Z,28.40
2023-05-08T20:34:23.754Z,28.50
2023-05-08T20:37:03.459Z,28.50
2023-05-08T20:39:32.718Z,28.50
2023-05-08T20:42:00.598Z,28.40
2023-05-08T20:44:28.132Z,28.50
2023-05-08T20:46:55.705Z,28.40
2023-05-08T20:49:23.482Z,28.20
2023-05-08T20:51:51.100Z,28.00
2023-05-08T20:54:19.700Z,28.20
2023-05-08T20:59:29.193Z,28.60
2023-05-08T21:01:56.974Z,28.60
2023-05-08T21:04:24.621Z,28.60
2023-05-08T21:06:52.480Z,28.50
2023-05-08T21:09:20.201Z,28.50
2023-05-08T21:11:47.816Z,28.60
2023-05-08T21:14:15.392Z,28.50
2023-05-08T21:16:43.276Z,28.50
2023-05-08T21:19:17.785Z,28.30
2023-05-08T21:21:45.617Z,28.40
2023-05-08T21:24:28.235Z,28.50
2023-05-08T21:26:56.111Z,28.30
2023-05-08T21:29:23.739Z,28.30
2023-05-08T21:31:51.351Z,28.20
2023-05-08T21:34:19.255Z,28.20
2023-05-08T21:36:46.825Z,28.30
2023-05-08T21:39:14.508Z,28.40
2023-05-08T21:41:42.536Z,28.50
2023-05-08T21:44:10.060Z,28.50
2023-05-08T21:46:37.716Z,28.30
2023-05-08T21:49:10.384Z,28.40
2023-05-08T21:51:43.256Z,28.40
2023-05-08T21:54:12.774Z,28.40
2023-05-08T21:56:40.712Z,28.30
2023-05-08T21:59:12.116Z,28.20
2023-05-08T22:01:47.849Z,28.10
2023-05-08T22:04:15.656Z,28.10
2023-05-08T22:06:43.323Z,28.10
2023-05-08T22:09:11.184Z,28.10
2023-05-08T22:11:39.106Z,28.20
2023-05-08T22:14:06.819Z,28.20
2023-05-08T22:16:34.676Z,28.10
2023-05-08T22:19:02.297Z,28.00
2023-05-08T22:21:30.005Z,28.00
2023-05-08T22:23:57.905Z,28.10
2023-05-08T22:26:25.501Z,28.10
2023-05-08T22:28:53.098Z,28.00
2023-05-08T22:31:21.024Z,28.00
2023-05-08T22:33:49.266Z,28.00
2023-05-08T22:36:17.534Z,27.90
2023-05-08T22:41:38.098Z,27.90
2023-05-08T22:44:05.875Z,27.70
2023-05-08T22:46:34.614Z,27.80
2023-05-08T22:49:02.367Z,27.90
2023-05-08T22:51:30.334Z,27.90
2023-05-08T22:53:58.162Z,27.90
2023-05-08T22:56:25.889Z,27.80
2023-05-08T22:58:53.629Z,27.90
2023-05-08T23:01:25.337Z,28.00
2023-05-08T23:06:36.026Z,27.80
2023-05-08T23:09:03.847Z,27.70
2023-05-08T23:14:12.459Z,27.90
2023-05-08T23:16:40.508Z,28.00
2023-05-08T23:19:10.822Z,27.90
2023-05-08T23:21:39.350Z,27.90
2023-05-08T23:24:07.004Z,27.90
2023-05-08T23:26:34.621Z,27.80
2023-05-08T23:29:03.651Z,27.60
2023-05-08T23:34:14.171Z,27.80
2023-05-08T23:36:41.879Z,27.90
2023-05-08T23:39:09.546Z,27.80
2023-05-08T23:41:37.298Z,27.90
2023-05-08T23:44:04.808Z,28.00
2023-05-08T23:46:32.532Z,28.20
2023-05-08T23:49:00.400Z,28.30
2023-05-08T23:51:28.285Z,28.20
2023-05-08T23:53:56.048Z,28.30
2023-05-08T23:56:32.974Z,28.40
2023-05-08T23:59:02.188Z,28.50
